Latest Weather Observations for White Cliffs AWS

IDN60801

Issued at 6:53 pm EST Monday 4 July 2022 (issued every 10 minutes, with the page automatically refreshed every 10 minutes)

About weather observations | Map of weather stations | Latest weather observations for NSW | Other Formats
Station Details ID: 046129 Name: WHITE CLIFFS AWS Lat: -30.85 Lon: 143.07 Height: 158.0 m
Data from the previous 72 hours. | See also: Recent months at White Cliffs AWS
Date/Time
EST
Temp
°C
App
Temp
°C
Dew
Point
°C
Rel
Hum
%
Delta-T
°C
Wind Press
QNH
hPa
Press
MSL
hPa
Rain since
9am
mm
Dir  Spd
km/h
Gust
km/h
Spd
kts
Gust
kts
04/06:30pm 11.3 5.8 4.1 61 3.2 SSW 22 28 12 15 1020.6 1020.7 0.0
04/06:00pm 12.1 6.6 3.9 57 3.7 S 22 28 12 15 1020.6 1020.7 0.0
04/05:30pm 13.0 6.3 3.9 54 4.1 S 28 39 15 21 1020.2 1020.3 0.0
04/05:00pm 14.1 7.8 3.6 49 4.8 S 26 35 14 19 1020.0 1020.1 0.0
04/04:30pm 14.8 7.7 3.6 47 5.1 S 30 35 16 19 1019.8 1019.9 0.0
04/04:00pm 15.3 9.0 3.8 46 5.3 S 26 32 14 17 1019.6 1019.7 0.0
04/03:30pm 15.6 8.5 3.7 45 5.5 S 30 37 16 20 1019.7 1019.8 0.0
04/03:00pm 15.6 8.9 3.7 45 5.5 SSW 28 37 15 20 1019.6 1019.7 0.0
04/02:30pm 14.8 8.1 3.6 47 5.1 SSW 28 39 15 21 1019.8 1019.9 0.0
04/02:00pm 14.6 7.5 3.7 48 5.0 S 30 43 16 23 1020.0 1020.1 0.0
04/01:30pm 14.5 7.8 3.6 48 5.0 SSW 28 37 15 20 1020.4 1020.5 0.0
04/01:00pm 14.1 7.0 3.6 49 4.8 SSW 30 41 16 22 1020.9 1021.0 0.0
04/12:30pm 13.3 5.5 3.1 50 4.6 SSW 33 43 18 23 1021.3 1021.4 0.0
04/12:00pm 12.5 4.8 3.2 53 4.1 SSW 33 41 18 22 1021.6 1021.7 0.0
04/11:30am 12.4 4.2 2.8 52 4.2 S 35 41 19 22 1022.1 1022.2 0.0
04/11:00am 11.7 4.2 3.2 56 3.8 S 32 39 17 21 1022.4 1022.5 0.0
04/10:30am 10.9 3.4 3.5 60 3.3 S 32 43 17 23 1022.4 1022.5 0.0
04/10:00am 9.6 2.5 3.6 66 2.6 SSW 30 39 16 21 1022.1 1022.2 0.0
04/09:30am 8.2 1.2 3.9 74 1.9 SSW 30 35 16 19 1022.1 1022.2 0.0
04/09:00am 7.1 1.2 3.9 80 1.4 SSW 24 28 13 15 1022.1 1022.2 0.0
04/08:30am 5.8 -0.2 3.3 84 1.1 S 24 30 13 16 1021.9 1022.0 0.0
04/08:00am 5.5 -0.5 3.3 86 0.9 SSW 24 28 13 15 1021.7 1021.8 0.0
04/07:30am 5.6 -0.4 3.3 85 1.0 SSW 24 28 13 15 1021.5 1021.6 0.0
04/07:00am 5.6 0.0 3.3 85 1.0 SSW 22 26 12 14 1021.3 1021.4 0.0
04/06:30am 5.5 -0.1 3.2 85 1.0 SSW 22 26 12 14 1021.0 1021.1 0.0
04/06:00am 5.7 -0.3 3.2 84 1.0 SSW 24 28 13 15 1020.7 1020.8 0.0
04/05:30am 5.7 0.6 3.2 84 1.0 SSW 19 24 10 13 1020.6 1020.7 0.0
04/05:00am 6.0 0.0 3.3 83 1.1 SSW 24 30 13 16 1020.1 1020.2 0.0
04/04:30am 6.2 1.0 3.4 82 1.2 SSW 20 28 11 15 1020.3 1020.4 0.0
04/04:00am 6.6 1.4 3.4 80 1.4 SSW 20 26 11 14 1020.6 1020.7 0.0
04/03:30am 6.9 0.9 3.5 79 1.5 SSW 24 30 13 16 1020.6 1020.7 0.0
04/03:00am 7.1 0.7 3.3 77 1.6 SSW 26 32 14 17 1020.7 1020.8 0.0
04/02:30am 7.3 0.6 3.5 77 1.6 SSW 28 32 15 17 1020.8 1020.9 0.0
04/02:00am 7.5 0.8 3.6 76 1.7 SSW 28 33 15 18 1021.0 1021.1 0.0
04/01:30am 7.7 1.4 3.6 75 1.8 SSW 26 33 14 18 1021.1 1021.2 0.0
04/01:00am 7.9 1.6 3.8 75 1.8 SSW 26 32 14 17 1021.1 1021.2 0.0
04/12:30am 8.3 1.6 3.9 74 1.9 SSW 28 35 15 19 1021.3 1021.4 0.0
04/12:00am 8.8 1.4 4.0 72 2.1 SSW 32 37 17 20 1021.3 1021.4 0.0
 
Date/Time
EST
Temp
°C
App
Temp
°C
Dew
Point
°C
Rel
Hum
%
Delta-T
°C
Wind Press
QNH
hPa
Press
MSL
hPa
Rain since
9am
mm
Dir  Spd
km/h
Gust
km/h
Spd
kts
Gust
kts
03/11:30pm 9.5 2.5 4.1 69 2.4 SSW 30 37 16 20 1021.2 1021.3 0.0
03/11:00pm 9.9 3.3 4.1 67 2.6 SSW 28 35 15 19 1021.4 1021.5 0.0
03/10:30pm 9.8 2.4 4.0 67 2.6 SSW 32 35 17 19 1021.5 1021.6 0.0
03/10:00pm 10.1 2.7 4.0 66 2.7 SSW 32 39 17 21 1021.7 1021.8 0.0
03/09:30pm 9.9 3.3 4.1 67 2.6 SSW 28 37 15 20 1021.7 1021.8 0.0
03/09:00pm 9.8 4.0 4.2 68 2.5 SSW 24 30 13 16 1022.0 1022.1 0.0
03/08:30pm 10.4 3.8 4.3 66 2.7 SSW 28 35 15 19 1021.9 1022.0 0.0
03/08:00pm 11.1 4.1 4.3 63 3.1 SSW 30 37 16 20 1022.2 1022.3 0.0
03/07:30pm 11.2 4.6 4.2 62 3.2 SSW 28 33 15 18 1022.0 1022.1 0.0
03/07:00pm 11.4 4.8 4.4 62 3.2 SSW 28 35 15 19 1021.5 1021.6 0.0
03/06:30pm 11.7 5.5 4.2 60 3.4 SSW 26 33 14 18 1021.4 1021.5 0.0
03/06:00pm 12.5 6.3 4.5 58 3.7 SSW 26 33 14 18 1021.0 1021.1 0.0
03/05:30pm 12.9 6.3 4.3 56 3.9 SSW 28 35 15 19 1020.8 1020.9 0.0
03/05:00pm 13.3 6.3 4.2 54 4.2 SSW 30 37 16 20 1020.6 1020.7 0.0
03/04:30pm 14.1 7.1 4.1 51 4.6 SSW 30 39 16 21 1020.5 1020.6 0.0
03/04:00pm 14.2 7.2 4.2 51 4.6 SSW 30 37 16 20 1020.3 1020.4 0.0
03/03:30pm 14.5 7.1 4.2 50 4.8 S 32 39 17 21 1020.7 1020.8 0.0
03/03:00pm 14.5 7.1 3.9 49 4.9 S 32 41 17 22 1020.6 1020.7 0.0
03/02:30pm 14.6 7.5 3.7 48 5.0 SSW 30 41 16 22 1020.2 1020.3 0.0
03/02:00pm 14.1 7.0 3.6 49 4.8 SSW 30 41 16 22 1020.4 1020.5 0.0
03/01:30pm 13.6 6.0 3.7 51 4.5 SSW 33 41 18 22 1020.7 1020.8 0.0
03/01:00pm 12.8 5.3 3.2 52 4.3 SSW 32 43 17 23 1021.2 1021.3 0.0
03/12:30pm 12.3 4.6 3.5 55 3.9 SSW 33 41 18 22 1021.8 1021.9 0.0
03/12:00pm 11.8 3.0 3.6 57 3.7 SSW 39 50 21 27 1022.2 1022.3 0.0
03/11:30am 10.8 3.7 3.6 61 3.2 SSW 30 41 16 22 1022.4 1022.5 0.0
03/11:00am 10.1 3.0 3.6 64 2.9 S 30 37 16 20 1023.3 1023.4 0.0
03/10:30am 9.4 3.6 4.2 70 2.3 SSW 24 32 13 17 1023.6 1023.7 0.0
03/10:00am 8.4 2.9 3.8 73 2.0 S 22 30 12 16 1023.6 1023.7 0.0
03/09:30am 7.0 0.3 3.4 78 1.5 S 28 32 15 17 1023.6 1023.7 0.0
03/09:00am 6.1 0.1 3.3 82 1.2 S 24 28 13 15 1023.6 1023.7 0.0
03/08:30am 5.3 0.6 3.2 86 0.9 S 17 22 9 12 1023.6 1023.7 0.0
03/08:00am 4.4 0.0 2.8 89 0.7 S 15 20 8 11 1023.5 1023.6 0.0
03/07:30am 4.1 -1.3 2.6 90 0.6 SSW 20 26 11 14 1023.2 1023.3 0.0
03/07:00am 4.3 -1.0 2.8 90 0.6 SSW 20 26 11 14 1023.0 1023.2 0.0
03/06:30am 4.3 -0.9 2.7 89 0.7 SSW 19 24 10 13 1023.0 1023.2 0.0
03/06:00am 4.4 -0.4 2.8 89 0.7 SSW 17 22 9 12 1022.9 1023.1 0.0
03/05:30am 4.6 -0.5 2.8 88 0.7 SSW 19 24 10 13 1022.8 1022.9 0.0
03/05:00am 4.8 0.0 2.8 87 0.8 SSW 17 22 9 12 1022.9 1023.1 0.0
03/04:30am 4.8 0.8 2.8 87 0.8 SW 13 17 7 9 1022.8 1022.9 0.0
03/04:00am 5.0 2.3 2.7 85 0.9 SSW 6 11 3 6 1023.3 1023.4 0.0
03/03:30am 5.2 1.5 2.6 83 1.1 SW 11 17 6 9 1023.3 1023.4 0.0
03/03:00am 5.4 1.4 2.8 83 1.1 SSW 13 17 7 9 1023.3 1023.4 0.0
03/02:30am 5.6 0.8 2.8 82 1.2 SSW 17 20 9 11 1023.7 1023.8 0.0
03/02:00am 5.9 1.5 2.9 81 1.2 SSW 15 19 8 10 1024.0 1024.1 0.0
03/01:30am 6.0 1.2 2.6 79 1.4 SSW 17 20 9 11 1023.9 1024.0 0.0
03/01:00am 6.3 1.5 2.8 78 1.5 S 17 20 9 11 1024.2 1024.3 0.0
03/12:30am 6.4 1.3 2.9 78 1.5 SSW 19 24 10 13 1024.2 1024.3 0.0
03/12:00am 6.7 1.4 3.0 77 1.5 SSW 20 26 11 14 1024.2 1024.3 0.0
 
Date/Time
EST
Temp
°C
App
Temp
°C
Dew
Point
°C
Rel
Hum
%
Delta-T
°C
Wind Press
QNH
hPa
Press
MSL
hPa
Rain since
9am
mm
Dir  Spd
km/h
Gust
km/h
Spd
kts
Gust
kts
02/11:30pm 7.1 1.4 3.0 75 1.7 SSW 22 26 12 14 1024.7 1024.8 0.0
02/11:00pm 7.6 2.3 3.1 73 1.9 SSW 20 26 11 14 1024.9 1025.0 0.0
02/10:30pm 8.1 1.7 3.2 71 2.1 S 26 32 14 17 1024.8 1024.9 0.0
02/10:00pm 8.5 2.5 3.6 71 2.1 S 24 32 13 17 1024.9 1025.0 0.0
02/09:30pm 8.7 2.4 3.7 71 2.2 S 26 33 14 18 1024.8 1024.9 0.0
02/09:00pm 9.1 2.9 4.1 71 2.2 SSW 26 33 14 18 1024.6 1024.7 0.0
02/08:30pm 9.4 3.6 4.2 70 2.3 SSW 24 30 13 16 1024.8 1024.9 0.0
02/08:00pm 9.8 3.6 4.2 68 2.5 SSW 26 32 14 17 1024.6 1024.7 0.0
02/07:30pm 10.5 4.3 4.4 66 2.8 SSW 26 32 14 17 1024.6 1024.7 0.0
02/07:00pm 10.9 5.1 4.4 64 2.9 SSW 24 30 13 16 1024.5 1024.6 0.0
02/06:30pm 11.2 5.8 4.4 63 3.1 SSW 22 30 12 16 1024.6 1024.7 0.0
02/06:00pm 11.5 6.1 4.5 62 3.2 SSW 22 30 12 16 1024.5 1024.6 0.0
02/05:30pm 12.3 6.2 4.8 60 3.5 SSW 26 32 14 17 1024.5 1024.6 0.0
02/05:00pm 13.1 6.2 4.8 57 3.8 SSW 30 37 16 20 1024.4 1024.5 0.0
02/04:30pm 13.7 6.8 4.8 55 4.2 SSW 30 41 16 22 1024.3 1024.4 0.0
02/04:00pm 13.8 6.9 4.7 54 4.2 SSW 30 37 16 20 1024.2 1024.3 0.0
02/03:30pm 14.3 8.6 4.9 53 4.4 S 24 37 13 20 1024.2 1024.3 0.0
02/03:00pm 14.1 8.0 4.9 54 4.3 S 26 33 14 18 1024.3 1024.4 0.0
02/02:30pm 14.6 9.0 5.4 54 4.4 SSW 24 33 13 18 1024.3 1024.4 0.0
02/02:00pm 14.2 8.6 5.3 55 4.2 SSW 24 30 13 16 1024.5 1024.6 0.0
02/01:30pm 13.4 7.4 5.1 57 3.9 SSW 26 35 14 19 1024.9 1025.0 0.0
02/01:00pm 13.3 6.4 4.7 56 4.0 SSW 30 39 16 21 1025.5 1025.6 0.0
02/12:30pm 12.3 5.1 4.8 60 3.5 SSW 32 39 17 21 1026.0 1026.1 0.0
02/12:00pm 12.6 5.5 5.3 61 3.4 S 32 43 17 23 1026.5 1026.6 0.0
02/11:30am 11.9 5.5 5.1 63 3.2 SSW 28 37 15 20 1026.8 1026.9 0.0
02/11:00am 10.8 4.0 4.9 67 2.7 S 30 35 16 19 1026.8 1026.9 0.0
02/10:30am 9.4 2.1 4.6 72 2.2 SSW 32 37 17 20 1026.8 1026.9 0.0
02/10:00am 8.4 0.9 4.4 76 1.8 SSW 33 41 18 22 1026.9 1027.0 0.0
02/09:30am 7.3 -0.1 4.1 80 1.4 SSW 32 39 17 21 1027.0 1027.1 0.0
02/09:00am 6.4 -0.3 3.9 84 1.1 SSW 28 37 15 20 1027.0 1027.1 0.0
02/08:30am 5.1 -0.9 3.4 89 0.7 SSW 24 30 13 16 1027.0 1027.1 0.0
02/08:00am 4.1 -1.0 2.9 92 0.5 SSW 19 22 10 12 1027.1 1027.2 0.0
02/07:30am 3.6 -1.6 2.6 93 0.4 SSW 19 20 10 11 1026.8 1026.9 0.0
02/07:00am 3.9 -1.2 2.9 93 0.4 SSW 19 20 10 11 1026.6 1026.7 0.0
02/06:30am 3.9 -0.9 2.7 92 0.5 SSW 17 20 9 11 1026.4 1026.5 0.0
02/06:00am 4.5 -0.6 3.0 90 0.6 SSW 19 20 10 11 1026.3 1026.4 0.0
02/05:30am 5.2 0.0 3.5 89 0.7 S 20 24 11 13 1026.3 1026.4 0.0
02/05:00am 5.4 0.2 3.6 88 0.8 SSW 20 24 11 13 1026.3 1026.4 0.0
02/04:30am 5.4 0.4 3.6 88 0.8 SSW 19 20 10 11 1026.5 1026.6 0.0
02/04:00am 5.8 0.8 3.8 87 0.8 SSW 19 22 10 12 1026.8 1026.9 0.0
02/03:30am 6.0 0.8 3.8 86 0.9 SSW 20 26 11 14 1026.9 1027.0 0.0
02/03:00am 6.2 0.6 3.7 84 1.1 S 22 26 12 14 1027.0 1027.1 0.0
02/02:30am 6.2 1.0 3.7 84 1.1 S 20 22 11 12 1027.1 1027.2 0.0
02/02:00am 6.6 1.4 3.8 82 1.2 SSW 20 24 11 13 1027.2 1027.3 0.0
02/01:30am 6.8 1.3 3.8 81 1.3 SSW 22 28 12 15 1027.1 1027.2 0.0
02/01:00am 6.9 1.3 3.7 80 1.4 SSW 22 26 12 14 1027.2 1027.3 0.0
02/12:30am 6.8 1.6 3.4 79 1.4 SSW 20 24 11 13 1027.3 1027.4 0.0
02/12:00am 7.2 1.6 3.4 77 1.6 SSW 22 28 12 15 1027.4 1027.5 0.0
 
Date/Time
EST
Temp
°C
App
Temp
°C
Dew
Point
°C
Rel
Hum
%
Delta-T
°C
Wind Press
QNH
hPa
Press
MSL
hPa
Rain since
9am
mm
Dir  Spd
km/h
Gust
km/h
Spd
kts
Gust
kts
01/11:30pm 6.8 1.5 2.9 76 1.6 SSW 20 26 11 14 1027.4 1027.5 0.0
01/11:00pm 6.8 1.6 2.3 73 1.9 SSW 19 20 10 11 1027.5 1027.6 0.0
01/10:30pm 7.4 2.2 2.5 71 2.1 SSW 19 20 10 11 1027.3 1027.4 0.0
01/10:00pm 7.3 2.1 2.2 70 2.1 SSW 19 22 10 12 1027.2 1027.3 0.0
01/09:30pm 7.1 2.2 1.8 69 2.2 SSW 17 19 9 10 1027.1 1027.2 0.0
01/09:00pm 7.0 2.3 1.1 66 2.4 SSW 15 17 8 9 1026.9 1027.0 0.0
01/08:30pm 7.4 2.7 0.8 63 2.7 SSW 15 17 8 9 1026.9 1027.0 0.0
01/08:00pm 8.4 3.7 1.1 60 3.0 SSW 15 17 8 9 1026.8 1026.9 0.0
01/07:30pm 8.4 3.7 1.1 60 3.0 SSW 15 15 8 8 1026.5 1026.6 0.0
01/07:00pm 9.2 5.0 1.4 58 3.2 SSW 13 13 7 7 1026.3 1026.4 0.0

Other formats

Comma delimited format used in spreadsheet applications
http://www.bom.gov.au/fwo/IDN60801/IDN60801.95699.axf

JavaScript Object Notation format (JSON) in row-major order
http://www.bom.gov.au/fwo/IDN60801/IDN60801.95699.json

Data quality

Most of these data are generated automatically and are frequently updated. Quality checks on data are not normally performed. It is possible for incorrect values to appear. Refer to information at About Latest Weather Observations and please check the disclaimer before using these data.